createdAt,value
2022-09-12T00:02:17.853Z,10.75
2022-09-12T00:05:19.991Z,10.76
2022-09-12T00:08:21.708Z,10.76
2022-09-12T00:11:24.261Z,10.77
2022-09-12T00:14:25.956Z,10.68
2022-09-12T00:17:27.683Z,10.67
2022-09-12T00:20:29.452Z,10.61
2022-09-12T00:23:32.690Z,10.60
2022-09-12T00:26:34.880Z,10.59
2022-09-12T00:29:36.593Z,10.56
2022-09-12T00:32:38.494Z,10.54
2022-09-12T00:35:53.043Z,10.48
2022-09-12T00:38:54.946Z,10.50
2022-09-12T00:41:56.774Z,10.45
2022-09-12T00:44:58.522Z,10.42
2022-09-12T00:48:04.461Z,10.37
2022-09-12T00:51:06.477Z,10.30
2022-09-12T00:54:17.069Z,10.22
2022-09-12T00:57:23.716Z,10.17
2022-09-12T01:00:27.334Z,10.12
2022-09-12T01:03:29.362Z,10.04
2022-09-12T01:06:37.394Z,9.95
2022-09-12T01:09:39.915Z,9.88
2022-09-12T01:12:46.048Z,9.82
2022-09-12T01:15:47.846Z,9.80
2022-09-12T01:19:01.564Z,9.79
2022-09-12T01:22:41.334Z,9.75
2022-09-12T01:26:13.824Z,9.69
2022-09-12T01:29:52.304Z,9.67
2022-09-12T01:33:31.489Z,9.60
2022-09-12T01:36:41.072Z,9.57
2022-09-12T01:40:02.930Z,9.57
2022-09-12T01:43:26.746Z,9.57
2022-09-12T01:46:43.047Z,9.55
2022-09-12T01:50:08.043Z,9.50
2022-09-12T01:53:12.860Z,9.48
2022-09-12T01:56:22.951Z,9.46
2022-09-12T01:59:30.783Z,9.44
2022-09-12T02:03:10.410Z,9.42
2022-09-12T02:06:20.584Z,9.47
2022-09-12T02:09:29.371Z,9.46
2022-09-12T02:12:39.912Z,9.49
2022-09-12T02:15:47.740Z,9.48
2022-09-12T02:18:53.937Z,9.47
2022-09-12T02:22:01.757Z,9.43
2022-09-12T02:25:07.597Z,9.40
2022-09-12T02:28:15.328Z,9.40
2022-09-12T02:31:33.803Z,9.41
2022-09-12T02:34:50.784Z,9.39
2022-09-12T02:38:04.625Z,9.38
2022-09-12T02:41:07.478Z,9.36
2022-09-12T02:44:09.174Z,9.35
2022-09-12T02:47:43.473Z,9.34
2022-09-12T02:50:45.830Z,9.32
2022-09-12T02:53:50.995Z,9.31
2022-09-12T02:56:52.703Z,9.29
2022-09-12T02:59:58.979Z,9.26
2022-09-12T03:03:27.659Z,9.23
2022-09-12T03:06:55.543Z,9.20
2022-09-12T03:10:08.098Z,9.19
2022-09-12T03:13:21.859Z,9.12
2022-09-12T03:16:42.081Z,9.12
2022-09-12T03:19:58.023Z,9.04
2022-09-12T03:23:12.488Z,8.99
2022-09-12T03:26:27.249Z,8.96
2022-09-12T03:29:30.951Z,8.93
2022-09-12T03:32:50.724Z,8.92
2022-09-12T03:35:53.495Z,8.92
2022-09-12T03:38:55.243Z,8.87
2022-09-12T03:41:57.523Z,8.88
2022-09-12T03:44:59.267Z,8.87
2022-09-12T03:48:01.283Z,8.86
2022-09-12T03:51:05.201Z,8.82
2022-09-12T03:54:07.235Z,8.80
2022-09-12T03:57:08.901Z,8.79
2022-09-12T04:00:11.188Z,8.79
2022-09-12T04:03:15.602Z,8.75
2022-09-12T04:06:20.235Z,8.74
2022-09-12T04:09:22.074Z,8.73
2022-09-12T04:12:23.891Z,8.69
2022-09-12T04:15:25.803Z,8.65
2022-09-12T04:18:28.463Z,8.66
2022-09-12T04:21:30.952Z,8.64
2022-09-12T04:24:32.677Z,8.67
2022-09-12T04:27:34.392Z,8.67
2022-09-12T04:30:36.216Z,8.69
2022-09-12T04:33:39.599Z,8.69
2022-09-12T04:36:42.258Z,8.71
2022-09-12T04:39:43.985Z,8.78
2022-09-12T04:42:45.737Z,8.80
2022-09-12T04:45:47.502Z,8.94
2022-09-12T04:48:54.488Z,8.95
2022-09-12T04:51:59.541Z,8.96
2022-09-12T04:55:01.275Z,9.00
2022-09-12T04:58:02.966Z,9.25
2022-09-12T05:01:23.233Z,9.47
2022-09-12T05:04:25.013Z,9.55
2022-09-12T05:07:26.679Z,9.63
2022-09-12T05:10:28.517Z,9.75
2022-09-12T05:13:30.475Z,9.91
2022-09-12T05:16:32.871Z,10.13
2022-09-12T05:19:34.951Z,10.37
2022-09-12T05:22:38.736Z,10.62
2022-09-12T05:25:40.583Z,10.89
2022-09-12T05:28:42.567Z,11.11
2022-09-12T05:31:44.682Z,11.28
2022-09-12T05:34:46.402Z,11.31
2022-09-12T05:37:48.103Z,11.36
2022-09-12T05:40:49.815Z,11.26
2022-09-12T05:43:56.695Z,11.36
2022-09-12T05:46:58.432Z,11.49
2022-09-12T05:50:00.145Z,11.64
2022-09-12T05:53:01.827Z,11.86
2022-09-12T05:56:09.319Z,12.00
2022-09-12T05:59:13.745Z,12.08
2022-09-12T06:02:16.037Z,12.19
2022-09-12T06:05:18.406Z,12.42
2022-09-12T06:08:20.083Z,12.52
2022-09-12T06:11:26.091Z,12.48
2022-09-12T06:14:27.931Z,12.73
2022-09-12T06:17:29.704Z,12.95
2022-09-12T06:20:31.433Z,13.18
2022-09-12T06:23:33.411Z,13.34
2022-09-12T06:26:35.538Z,13.49
2022-09-12T06:29:37.449Z,13.66
2022-09-12T06:32:39.248Z,13.94
2022-09-12T06:35:41.174Z,13.78
2022-09-12T06:38:43.054Z,13.59
2022-09-12T06:41:45.415Z,13.56
2022-09-12T06:44:47.120Z,13.71
2022-09-12T06:47:48.809Z,13.92
2022-09-12T06:50:58.520Z,14.02
2022-09-12T06:54:00.980Z,14.23
2022-09-12T06:57:02.715Z,14.62
2022-09-12T07:00:05.876Z,15.03
2022-09-12T07:03:08.377Z,15.05
2022-09-12T07:06:14.442Z,15.17
2022-09-12T07:09:17.014Z,15.14
2022-09-12T07:12:18.821Z,15.58
2022-09-12T07:15:20.528Z,15.95
2022-09-12T07:18:22.211Z,16.09
2022-09-12T07:21:24.163Z,16.44
2022-09-12T07:24:26.169Z,16.68
2022-09-12T07:27:27.900Z,16.95
2022-09-12T07:30:29.751Z,17.37
2022-09-12T07:33:31.671Z,17.32
2022-09-12T07:36:33.964Z,17.51
2022-09-12T07:39:35.618Z,17.15
2022-09-12T07:42:37.300Z,16.87
2022-09-12T07:45:41.831Z,16.92
2022-09-12T07:48:44.622Z,16.86
2022-09-12T07:51:46.733Z,16.77
2022-09-12T07:54:48.414Z,16.75
2022-09-12T07:57:51.108Z,16.52
2022-09-12T08:00:53.001Z,16.70
2022-09-12T08:03:57.345Z,16.57
2022-09-12T08:06:59.244Z,16.19
2022-09-12T08:10:01.408Z,16.45
2022-09-12T08:13:03.827Z,16.53
2022-09-12T08:16:17.971Z,16.90
2022-09-12T08:19:19.950Z,16.07
2022-09-12T08:22:21.973Z,16.41
2022-09-12T08:25:24.017Z,16.67
2022-09-12T08:28:26.191Z,16.40
2022-09-12T08:31:28.695Z,16.26
2022-09-12T08:34:30.433Z,16.75
2022-09-12T08:37:32.268Z,17.17
2022-09-12T08:40:49.252Z,17.32
2022-09-12T08:44:28.531Z,17.22
2022-09-12T08:47:43.604Z,17.07
2022-09-12T08:50:49.894Z,17.15
2022-09-12T08:53:54.705Z,17.26
2022-09-12T08:57:02.675Z,18.00
2022-09-12T09:00:06.197Z,18.23
2022-09-12T09:03:27.080Z,17.95
2022-09-12T09:06:52.561Z,17.50
2022-09-12T09:10:03.353Z,17.33
2022-09-12T09:13:43.285Z,17.54
2022-09-12T09:16:48.024Z,18.50
2022-09-12T09:19:57.714Z,17.89
2022-09-12T09:23:10.664Z,17.89
2022-09-12T09:26:28.731Z,18.22
2022-09-12T09:29:41.364Z,18.21
2022-09-12T09:32:47.768Z,18.68
2022-09-12T09:36:11.671Z,18.01
2022-09-12T09:39:38.158Z,18.31
2022-09-12T09:43:06.104Z,18.92
2022-09-12T09:46:08.120Z,19.43
2022-09-12T09:49:14.569Z,18.93
2022-09-12T09:52:21.359Z,18.45
2022-09-12T09:55:28.186Z,18.53
2022-09-12T09:58:35.230Z,18.29
2022-09-12T10:01:38.907Z,18.57
2022-09-12T10:04:53.235Z,18.80
2022-09-12T10:07:55.077Z,19.52
2022-09-12T10:11:03.695Z,19.58
2022-09-12T10:14:05.747Z,19.30
2022-09-12T10:17:33.240Z,20.09
2022-09-12T10:20:42.559Z,19.75
2022-09-12T10:23:45.978Z,19.88
2022-09-12T10:26:56.776Z,19.62
2022-09-12T10:30:05.920Z,19.80
2022-09-12T10:33:12.869Z,19.46
2022-09-12T10:36:15.701Z,19.18
2022-09-12T10:39:19.731Z,19.71
2022-09-12T10:42:56.783Z,19.65
2022-09-12T10:46:19.504Z,19.83
2022-09-12T10:49:26.249Z,19.75
2022-09-12T10:52:28.527Z,19.62
2022-09-12T10:55:34.930Z,19.38
2022-09-12T10:59:19.326Z,18.66
2022-09-12T11:02:21.725Z,18.11
2022-09-12T11:05:37.497Z,18.58
2022-09-12T11:08:57.564Z,19.33
2022-09-12T11:12:08.305Z,19.34
2022-09-12T11:15:29.871Z,19.63
2022-09-12T11:18:37.413Z,19.75
2022-09-12T11:21:57.191Z,20.44
2022-09-12T11:25:20.134Z,20.31
2022-09-12T11:28:35.019Z,20.60
2022-09-12T11:32:14.448Z,20.40
2022-09-12T11:35:19.024Z,19.92
2022-09-12T11:38:44.881Z,19.69
2022-09-12T11:41:55.841Z,19.43
2022-09-12T11:45:19.115Z,19.63
2022-09-12T11:48:38.299Z,19.39
2022-09-12T11:51:45.924Z,19.58
2022-09-12T11:55:18.532Z,19.18
2022-09-12T11:58:24.972Z,19.11
2022-09-12T12:01:36.287Z,19.29
2022-09-12T12:04:56.129Z,19.18
2022-09-12T12:08:01.141Z,19.52
2022-09-12T12:11:05.330Z,19.42
2022-09-12T12:14:18.901Z,19.56
2022-09-12T12:17:23.851Z,19.84
2022-09-12T12:20:27.311Z,19.92
2022-09-12T12:23:34.895Z,19.46
2022-09-12T12:26:40.041Z,19.53
2022-09-12T12:29:45.267Z,19.40
2022-09-12T12:32:47.123Z,19.86
2022-09-12T12:35:57.827Z,20.10
2022-09-12T12:39:00.052Z,19.85
2022-09-12T12:42:03.088Z,20.23
2022-09-12T12:45:29.187Z,20.36
2022-09-12T12:48:35.485Z,20.13
2022-09-12T12:51:40.613Z,20.25
2022-09-12T12:54:42.305Z,20.51
2022-09-12T12:57:50.521Z,20.60
2022-09-12T13:01:11.297Z,20.37
2022-09-12T13:04:18.074Z,20.90
2022-09-12T13:07:38.772Z,20.20
2022-09-12T13:10:53.650Z,20.28
2022-09-12T13:14:00.802Z,20.58
2022-09-12T13:17:06.355Z,20.86
2022-09-12T13:20:34.586Z,21.06
2022-09-12T13:23:36.433Z,21.00
2022-09-12T13:26:43.910Z,20.57
2022-09-12T13:29:45.855Z,20.70
2022-09-12T13:32:47.863Z,21.14
2022-09-12T13:36:03.084Z,21.00
2022-09-12T13:39:35.195Z,20.89
2022-09-12T13:42:48.773Z,21.36
2022-09-12T13:45:52.895Z,21.07
2022-09-12T13:48:55.058Z,21.56
2022-09-12T13:52:03.271Z,21.25
2022-09-12T13:55:09.019Z,21.38
2022-09-12T13:58:31.969Z,21.75
2022-09-12T14:01:42.590Z,22.00
2022-09-12T14:05:06.917Z,22.22
2022-09-12T14:08:11.327Z,21.78
2022-09-12T14:11:25.140Z,21.45
2022-09-12T14:14:31.607Z,21.18
2022-09-12T14:17:36.311Z,20.95
2022-09-12T14:20:39.436Z,21.08
2022-09-12T14:23:43.832Z,20.66
2022-09-12T14:26:46.312Z,21.28
2022-09-12T14:29:48.522Z,21.23
2022-09-12T14:33:12.101Z,21.33
2022-09-12T14:36:27.330Z,21.54
2022-09-12T14:39:43.013Z,20.91
2022-09-12T14:42:46.722Z,20.73
2022-09-12T14:45:59.628Z,20.40
2022-09-12T14:49:10.409Z,20.26
2022-09-12T14:52:33.585Z,20.60
2022-09-12T14:55:43.370Z,20.69
2022-09-12T14:58:45.109Z,20.90
2022-09-12T15:01:46.910Z,20.27
2022-09-12T15:05:04.002Z,20.73
2022-09-12T15:08:15.166Z,20.41
2022-09-12T15:11:16.913Z,20.54
2022-09-12T15:14:18.600Z,20.50
2022-09-12T15:17:20.443Z,20.26
2022-09-12T15:20:22.809Z,20.35
2022-09-12T15:23:33.116Z,20.04
2022-09-12T15:26:34.953Z,20.27
2022-09-12T15:29:36.679Z,19.78
2022-09-12T15:32:39.330Z,19.81
2022-09-12T15:35:41.316Z,19.67
2022-09-12T15:38:44.029Z,19.76
2022-09-12T15:41:47.810Z,19.33
2022-09-12T15:44:49.584Z,18.98
2022-09-12T15:47:51.309Z,18.69
2022-09-12T15:50:53.121Z,18.66
2022-09-12T15:53:55.133Z,18.55
2022-09-12T15:56:56.844Z,18.55
2022-09-12T15:59:58.647Z,18.27
2022-09-12T16:03:01.023Z,18.16
2022-09-12T16:06:04.383Z,18.01
2022-09-12T16:09:06.087Z,18.04
2022-09-12T16:12:07.937Z,17.88
2022-09-12T16:15:15.325Z,17.58
2022-09-12T16:18:17.171Z,17.57
2022-09-12T16:21:19.003Z,17.51
2022-09-12T16:24:20.796Z,17.44
2022-09-12T16:27:22.515Z,17.33
2022-09-12T16:30:24.591Z,17.25
2022-09-12T16:33:26.999Z,17.04
2022-09-12T16:36:28.665Z,17.01
2022-09-12T16:39:30.380Z,17.03
2022-09-12T16:42:32.089Z,17.03
2022-09-12T16:45:33.977Z,17.00
2022-09-12T16:48:36.159Z,16.86
2022-09-12T16:51:37.941Z,16.73
2022-09-12T16:54:40.082Z,16.61
2022-09-12T16:57:41.856Z,16.52
2022-09-12T17:00:43.509Z,16.41
2022-09-12T17:03:45.764Z,16.30
2022-09-12T17:06:47.450Z,16.20
2022-09-12T17:09:49.384Z,16.06
2022-09-12T17:12:51.157Z,15.95
2022-09-12T17:15:52.920Z,15.86
2022-09-12T17:18:55.391Z,15.78
2022-09-12T17:21:57.884Z,15.70
2022-09-12T17:24:59.557Z,15.58
2022-09-12T17:28:01.587Z,15.48
2022-09-12T17:31:09.275Z,15.40
2022-09-12T17:34:14.451Z,15.34
2022-09-12T17:37:17.485Z,15.29
2022-09-12T17:40:19.391Z,15.13
2022-09-12T17:43:21.118Z,15.06
2022-09-12T17:46:26.058Z,14.87
2022-09-12T17:49:28.267Z,14.85
2022-09-12T17:52:30.484Z,14.82
2022-09-12T17:55:39.475Z,14.74
2022-09-12T17:58:41.376Z,14.60
2022-09-12T18:02:02.314Z,14.45
2022-09-12T18:05:09.058Z,14.35
2022-09-12T18:08:10.947Z,14.29
2022-09-12T18:11:12.708Z,14.28
2022-09-12T18:14:15.291Z,14.22
2022-09-12T18:17:17.197Z,14.16
2022-09-12T18:20:19.045Z,14.14
2022-09-12T18:23:20.784Z,14.10
2022-09-12T18:26:22.782Z,14.06
2022-09-12T18:29:27.727Z,14.03
2022-09-12T18:32:29.423Z,13.99
2022-09-12T18:35:32.008Z,13.91
2022-09-12T18:38:33.769Z,13.81
2022-09-12T18:41:36.053Z,13.70
2022-09-12T18:44:37.731Z,13.65
2022-09-12T18:47:39.453Z,13.58
2022-09-12T18:50:41.120Z,13.47
2022-09-12T18:53:43.100Z,13.40
2022-09-12T18:56:45.849Z,13.34
2022-09-12T18:59:47.825Z,13.30
2022-09-12T19:02:49.529Z,13.33
2022-09-12T19:05:51.350Z,13.33
2022-09-12T19:08:54.112Z,13.29
2022-09-12T19:11:55.895Z,13.26
2022-09-12T19:14:58.150Z,13.22
2022-09-12T19:18:00.142Z,13.19
2022-09-12T19:21:01.838Z,13.14
2022-09-12T19:24:10.158Z,13.09
2022-09-12T19:27:13.474Z,13.09
2022-09-12T19:30:15.201Z,13.09
2022-09-12T19:33:16.879Z,13.04
2022-09-12T19:36:44.348Z,13.00
2022-09-12T19:39:44.456Z,12.93
2022-09-12T19:42:46.177Z,12.83
2022-09-12T19:45:48.338Z,12.79
2022-09-12T19:48:51.037Z,12.75
2022-09-12T19:51:52.811Z,12.67
2022-09-12T19:54:54.486Z,12.58
2022-09-12T19:57:56.230Z,12.51
2022-09-12T20:01:13.618Z,12.43
2022-09-12T20:04:15.327Z,12.32
2022-09-12T20:07:17.029Z,12.24
2022-09-12T20:10:18.916Z,12.19
2022-09-12T20:13:20.583Z,12.14
2022-09-12T20:16:25.537Z,12.12
2022-09-12T20:19:28.286Z,12.10
2022-09-12T20:22:30.148Z,12.04
2022-09-12T20:25:31.957Z,11.98
2022-09-12T20:28:33.697Z,11.98
2022-09-12T20:31:37.170Z,11.87
2022-09-12T20:34:39.089Z,11.90
2022-09-12T20:37:40.842Z,11.99
2022-09-12T20:40:48.977Z,12.04
2022-09-12T20:43:55.536Z,12.05
2022-09-12T20:46:58.059Z,12.04
2022-09-12T20:49:59.979Z,12.05
2022-09-12T20:53:01.720Z,12.04
2022-09-12T20:56:05.387Z,12.04
2022-09-12T20:59:07.289Z,12.05
2022-09-12T21:02:15.784Z,12.03
2022-09-12T21:05:17.753Z,12.00
2022-09-12T21:08:19.490Z,12.02
2022-09-12T21:11:21.165Z,11.99
2022-09-12T21:14:22.850Z,11.97
2022-09-12T21:17:24.526Z,11.91
2022-09-12T21:20:26.240Z,11.82
2022-09-12T21:23:29.676Z,11.78
2022-09-12T21:26:31.884Z,11.72
2022-09-12T21:29:33.619Z,11.64
2022-09-12T21:32:35.996Z,11.59
2022-09-12T21:35:37.882Z,11.50
2022-09-12T21:38:39.695Z,11.54
2022-09-12T21:41:41.364Z,11.54
2022-09-12T21:44:43.057Z,11.54
2022-09-12T21:47:45.295Z,11.55
2022-09-12T21:50:50.411Z,11.50
2022-09-12T21:53:52.138Z,11.43
2022-09-12T21:56:53.925Z,11.37
2022-09-12T21:59:55.626Z,11.36
2022-09-12T22:02:57.971Z,11.36
2022-09-12T22:06:02.084Z,11.42
2022-09-12T22:09:05.785Z,11.45
2022-09-12T22:12:07.639Z,11.43
2022-09-12T22:15:36.496Z,11.41
2022-09-12T22:18:35.939Z,11.43
2022-09-12T22:21:57.587Z,11.35
2022-09-12T22:24:59.269Z,11.24
2022-09-12T22:28:01.128Z,11.19
2022-09-12T22:31:02.848Z,11.19
2022-09-12T22:34:04.957Z,11.25
2022-09-12T22:37:06.835Z,11.20
2022-09-12T22:40:09.473Z,11.13
2022-09-12T22:43:11.808Z,11.10
2022-09-12T22:46:13.576Z,11.08
2022-09-12T22:49:15.368Z,11.11
2022-09-12T22:52:17.149Z,11.06
2022-09-12T22:55:18.831Z,10.96
2022-09-12T22:58:20.639Z,10.88
2022-09-12T23:01:22.915Z,10.89
2022-09-12T23:04:24.629Z,10.89
2022-09-12T23:07:26.649Z,10.78
2022-09-12T23:10:28.273Z,10.75
2022-09-12T23:13:30.307Z,10.64
2022-09-12T23:16:32.218Z,10.55
2022-09-12T23:19:33.919Z,10.56
2022-09-12T23:22:37.159Z,10.51
2022-09-12T23:25:38.817Z,10.47
2022-09-12T23:28:46.790Z,10.43
2022-09-12T23:31:48.715Z,10.38
2022-09-12T23:34:50.431Z,10.32
2022-09-12T23:37:52.104Z,10.26
2022-09-12T23:40:53.933Z,10.20
2022-09-12T23:43:55.879Z,10.13
2022-09-12T23:46:57.548Z,10.06
2022-09-12T23:49:59.271Z,10.00
2022-09-12T23:53:01.247Z,9.94
2022-09-12T23:56:04.047Z,9.91
2022-09-12T23:59:05.804Z,9.87
